Time;durP1;ratioP1;P1;durP2;ratioP2;P2;SDS_P1;SDS_P2;PMS_P1;PMS_P2;Temp;Humidity;BMP_temperature;BMP_pressure;BME280_temperature;BME280_humidity;BME280_pressure;Samples;Min_cycle;Max_cycle;Signal;HPM_P1;HPM_P2
2023/11/26 00:00:34;;;;;;;115.30;50.20;;;;;;;4.94;52.18;98353.24;108162;1251;60315;-67
2023/11/26 00:03:04;;;;;;;122.10;54.80;;;;;;;4.98;52.02;98351.82;108146;1251;72724;-67
2023/11/26 00:05:31;;;;;;;118.10;52.40;;;;;;;5.08;51.78;98347.23;108209;1251;69215;-67
2023/11/26 00:07:59;;;;;;;121.40;51.70;;;;;;;5.02;51.94;98343.67;108139;1253;72486;-67
2023/11/26 00:10:26;;;;;;;128.40;55.70;;;;;;;4.97;52.21;98337.28;108163;1252;61718;-67
2023/11/26 00:12:54;;;;;;;121.30;53.90;;;;;;;5.27;51.47;98343.13;108215;1251;60163;-67
2023/11/26 00:15:21;;;;;;;123.90;57.00;;;;;;;5.23;51.40;98349.37;108243;1256;73824;-67
2023/11/26 00:17:49;;;;;;;122.80;53.00;;;;;;;5.16;51.61;98351.93;108213;1251;69948;-67
2023/11/26 00:20:17;;;;;;;107.00;47.40;;;;;;;5.01;51.99;98350.50;108193;1253;71561;-67
2023/11/26 00:22:45;;;;;;;113.30;50.80;;;;;;;4.98;52.31;98356.20;108236;1256;60348;-67
2023/11/26 00:25:12;;;;;;;108.20;48.60;;;;;;;5.03;52.17;98362.77;108206;1251;60378;-67
2023/11/26 00:27:40;;;;;;;120.10;51.40;;;;;;;5.01;52.20;98362.83;108208;1251;72647;-67
2023/11/26 00:30:08;;;;;;;120.40;52.00;;;;;;;5.00;52.26;98365.67;108189;1251;70438;-67
2023/11/26 00:32:35;;;;;;;108.90;48.80;;;;;;;4.98;52.28;98366.27;108133;1251;72893;-66
2023/11/26 00:35:04;;;;;;;114.60;50.70;;;;;;;5.08;51.95;98363.42;108145;1254;61827;-66
2023/11/26 00:37:32;;;;;;;112.10;48.80;;;;;;;5.16;51.94;98363.23;108185;1251;60444;-66
2023/11/26 00:40:00;;;;;;;102.20;47.20;;;;;;;5.47;51.20;98369.75;108212;1256;73297;-66
2023/11/26 00:42:27;;;;;;;100.80;45.30;;;;;;;5.19;51.40;98372.50;108192;1256;70155;-66
2023/11/26 00:44:55;;;;;;;110.40;47.20;;;;;;;5.17;51.75;98372.41;108305;1251;71820;-66
2023/11/26 00:47:23;;;;;;;113.80;51.20;;;;;;;5.03;52.06;98357.20;108128;1258;60359;-66
2023/11/26 00:49:50;;;;;;;101.30;46.30;;;;;;;5.05;51.93;98353.11;108133;1251;60316;-66
2023/11/26 00:52:18;;;;;;;135.80;54.40;;;;;;;5.07;51.96;98349.38;108297;1251;73852;-65
2023/11/26 00:54:46;;;;;;;157.30;61.60;;;;;;;4.95;52.07;98353.70;108150;1251;70688;-66
2023/11/26 00:57:13;;;;;;;128.30;54.10;;;;;;;4.87;52.24;98357.89;108153;1253;72754;-66
2023/11/26 00:59:41;;;;;;;129.50;54.40;;;;;;;4.95;51.98;98358.22;108075;1251;60363;-66
2023/11/26 01:02:09;;;;;;;275.90;93.90;;;;;;;4.93;51.79;98353.63;108091;1251;60579;-66
2023/11/26 01:04:37;;;;;;;161.00;64.50;;;;;;;5.17;51.19;98345.61;108296;1251;72614;-65
2023/11/26 01:07:06;;;;;;;131.20;55.30;;;;;;;5.15;51.26;98335.97;108206;1251;68787;-66
2023/11/26 01:09:34;;;;;;;128.20;53.10;;;;;;;5.20;50.97;98330.02;108260;1254;71061;-66
2023/11/26 01:12:03;;;;;;;120.30;51.90;;;;;;;5.01;51.38;98330.67;108213;1251;61676;-66
2023/11/26 01:14:31;;;;;;;118.00;52.40;;;;;;;4.87;51.66;98328.66;108210;1251;59467;-66
2023/11/26 01:16:58;;;;;;;114.20;50.30;;;;;;;4.95;51.36;98323.61;108207;1252;72683;-66
2023/11/26 01:19:26;;;;;;;114.70;50.50;;;;;;;5.05;50.96;98321.10;108060;1251;70116;-66
2023/11/26 01:21:54;;;;;;;110.60;48.80;;;;;;;4.86;51.18;98315.30;108063;1259;71432;-66
2023/11/26 01:24:21;;;;;;;108.50;50.70;;;;;;;4.79;51.56;98313.48;108188;1254;60879;-66
2023/11/26 01:26:49;;;;;;;117.40;51.80;;;;;;;4.76;51.47;98307.39;108201;1251;60967;-66
2023/11/26 01:29:16;;;;;;;116.80;49.80;;;;;;;4.75;51.40;98306.55;108099;1251;72772;-66
2023/11/26 01:31:44;;;;;;;109.60;51.00;;;;;;;4.71;51.32;98315.41;108273;1251;68390;-67
2023/11/26 01:34:13;;;;;;;122.20;51.70;;;;;;;4.59;51.65;98313.48;108167;1251;72549;-66
2023/11/26 01:36:41;;;;;;;116.60;50.50;;;;;;;4.53;51.79;98317.73;108071;1254;61634;-66
2023/11/26 01:39:09;;;;;;;108.10;48.90;;;;;;;4.51;51.70;98319.77;108180;1251;59022;-66
2023/11/26 01:41:37;;;;;;;95.50;43.00;;;;;;;4.42;51.77;98321.83;108160;1251;72416;-66
2023/11/26 01:44:05;;;;;;;102.90;44.30;;;;;;;4.39;52.06;98314.30;108184;1251;69300;-67
2023/11/26 01:46:33;;;;;;;106.60;46.50;;;;;;;4.47;51.65;98313.30;108206;1253;71459;-66
2023/11/26 01:49:00;;;;;;;107.30;48.30;;;;;;;4.41;51.76;98311.80;108368;1252;61497;-67
2023/11/26 01:51:28;;;;;;;121.40;52.80;;;;;;;4.39;51.60;98315.00;108236;1251;60332;-66
2023/11/26 01:53:56;;;;;;;107.60;48.80;;;;;;;4.63;50.77;98312.45;108227;1251;74269;-66
2023/11/26 01:56:24;;;;;;;109.10;48.30;;;;;;;4.53;51.25;98313.93;108129;1251;70100;-66
2023/11/26 01:58:51;;;;;;;115.20;49.20;;;;;;;4.49;51.02;98315.30;107977;1251;71695;-67
2023/11/26 02:01:21;;;;;;;103.20;46.60;;;;;;;4.54;50.94;98315.61;107973;1254;60995;-66
2023/11/26 02:03:49;;;;;;;92.80;40.80;;;;;;;4.90;50.00;98311.12;108196;1253;60306;-66
2023/11/26 02:06:17;;;;;;;90.20;42.40;;;;;;;4.67;50.33;98302.54;108170;1253;72569;-66
2023/11/26 02:08:45;;;;;;;110.90;46.80;;;;;;;4.61;50.44;98297.60;108119;1253;69387;-68
2023/11/26 02:11:12;;;;;;;118.50;48.90;;;;;;;4.01;51.50;98290.29;108074;1253;71766;-67
2023/11/26 02:13:46;;;;;;;102.10;47.10;;;;;;;3.83;52.10;98290.30;108230;1253;60848;-67
2023/11/26 02:16:14;;;;;;;99.70;45.60;;;;;;;3.71;52.33;98291.27;108187;1253;61095;-66
2023/11/26 02:18:42;;;;;;;112.40;50.10;;;;;;;4.01;51.77;98292.58;108108;1256;73761;-66
2023/11/26 02:21:10;;;;;;;116.70;46.50;;;;;;;4.14;51.32;98292.77;108214;1252;70257;-66
2023/11/26 02:23:38;;;;;;;116.30;47.60;;;;;;;4.07;51.32;98283.65;108104;1258;71145;-67
2023/11/26 02:26:06;;;;;;;112.10;47.40;;;;;;;4.12;51.30;98275.28;108236;1254;61650;-66
2023/11/26 02:28:33;;;;;;;99.60;44.60;;;;;;;4.34;50.69;98268.14;108231;1253;60001;-65
2023/11/26 02:31:01;;;;;;;100.60;44.50;;;;;;;4.08;51.39;98261.23;108118;1252;72590;-65
2023/11/26 02:33:29;;;;;;;98.70;43.50;;;;;;;4.01;51.40;98248.46;108129;1254;69023;-65
2023/11/26 02:36:16;;;;;;;97.40;44.80;;;;;;;3.88;51.87;98244.30;108168;1254;71508;-63
2023/11/26 02:38:44;;;;;;;98.30;46.80;;;;;;;3.94;51.84;98240.92;108054;1253;60427;-65
2023/11/26 02:41:11;;;;;;;99.60;44.80;;;;;;;4.01;51.83;98241.02;108097;1252;60266;-65
2023/11/26 02:43:39;;;;;;;97.40;44.50;;;;;;;4.11;51.76;98243.73;108105;1253;73837;-64
2023/11/26 02:46:07;;;;;;;107.60;44.20;;;;;;;4.16;51.82;98241.23;108077;1254;69075;-65
2023/11/26 02:48:34;;;;;;;92.30;41.80;;;;;;;3.87;52.48;98236.52;108083;1253;72512;-64
2023/11/26 02:51:02;;;;;;;93.20;41.90;;;;;;;4.11;52.33;98231.87;108049;1254;61965;-68
2023/11/26 02:53:29;;;;;;;98.30;41.70;;;;;;;4.42;51.68;98225.41;108071;1254;60547;-67
2023/11/26 02:55:57;;;;;;;85.90;39.80;;;;;;;4.23;52.38;98225.17;108045;1253;73146;-66
2023/11/26 02:58:25;;;;;;;87.00;37.50;;;;;;;4.33;52.32;98227.84;108250;1254;70312;-66
2023/11/26 03:00:53;;;;;;;91.10;39.20;;;;;;;4.25;52.75;98225.27;108147;1251;71453;-66
2023/11/26 03:03:21;;;;;;;93.90;41.20;;;;;;;4.29;52.50;98218.48;108256;1251;60472;-67
2023/11/26 03:05:50;;;;;;;90.20;41.30;;;;;;;4.34;52.57;98211.46;108228;1251;60244;-66
2023/11/26 03:08:21;;;;;;;93.40;41.10;;;;;;;4.44;52.35;98202.02;108187;1257;72679;-66
2023/11/26 03:13:36;;;;;;;96.30;39.60;;;;;;;4.41;52.33;98190.67;108256;1254;71492;-65
2023/11/26 03:16:07;;;;;;;90.70;40.20;;;;;;;4.17;52.85;98183.73;108179;1251;60372;-66
2023/11/26 03:18:35;;;;;;;87.70;39.70;;;;;;;4.15;52.96;98179.64;108289;1251;60335;-66
2023/11/26 03:21:03;;;;;;;93.20;39.70;;;;;;;4.19;53.07;98190.58;108105;1251;73827;-66
2023/11/26 03:23:32;;;;;;;90.20;42.80;;;;;;;4.22;53.02;98201.94;108259;1251;70050;-66
2023/11/26 03:26:00;;;;;;;96.60;42.20;;;;;;;4.27;53.04;98207.28;108236;1254;71392;-66
2023/11/26 03:28:27;;;;;;;90.10;39.60;;;;;;;4.30;53.05;98211.98;108224;1254;60362;-66
2023/11/26 03:30:56;;;;;;;94.10;39.40;;;;;;;4.40;52.88;98213.84;108287;1251;60392;-66
2023/11/26 03:33:26;;;;;;;90.20;39.70;;;;;;;4.49;52.80;98217.64;108202;1257;73446;-67
2023/11/26 03:35:54;;;;;;;84.50;38.60;;;;;;;4.53;52.91;98213.28;108233;1253;69261;-66
2023/11/26 03:38:22;;;;;;;89.10;38.30;;;;;;;4.64;52.79;98209.52;108257;1251;72477;-66
2023/11/26 03:40:49;;;;;;;72.70;33.50;;;;;;;4.77;52.69;98217.80;108200;1251;60430;-66
2023/11/26 03:43:17;;;;;;;84.90;39.10;;;;;;;4.78;52.76;98212.17;108237;1251;60206;-66
2023/11/26 03:45:45;;;;;;;87.10;38.40;;;;;;;4.86;52.79;98207.84;108305;1251;74343;-66
2023/11/26 03:48:12;;;;;;;85.70;38.60;;;;;;;4.99;52.28;98201.20;108170;1251;69602;-66
2023/11/26 03:50:40;;;;;;;74.00;34.30;;;;;;;5.09;51.99;98197.41;108233;1251;72328;-65
2023/11/26 03:53:07;;;;;;;68.40;33.50;;;;;;;5.04;52.21;98195.55;108103;1251;61688;-66
2023/11/26 03:55:35;;;;;;;81.20;37.10;;;;;;;5.06;52.39;98200.35;108238;1251;60367;-66
2023/11/26 03:58:02;;;;;;;85.40;37.80;;;;;;;5.19;52.27;98199.05;108225;1256;73846;-66
2023/11/26 04:00:30;;;;;;;74.80;35.40;;;;;;;5.22;51.93;98199.24;108194;1253;70334;-65
2023/11/26 04:02:58;;;;;;;84.50;37.20;;;;;;;5.13;52.16;98198.83;108162;1254;71914;-66
2023/11/26 04:05:25;;;;;;;67.70;31.70;;;;;;;5.01;52.68;98207.70;108129;1254;60433;-66
2023/11/26 04:07:53;;;;;;;62.60;29.20;;;;;;;5.17;52.43;98217.09;108142;1253;59088;-66
2023/11/26 04:10:21;;;;;;;67.10;30.30;;;;;;;5.27;52.37;98228.27;108120;1252;73353;-65
2023/11/26 04:12:58;;;;;;;72.70;31.30;;;;;;;5.13;52.79;98237.25;108093;1252;67937;-67
2023/11/26 04:15:26;;;;;;;62.50;30.10;;;;;;;5.24;52.62;98251.18;108131;1254;71460;-64
2023/11/26 04:17:54;;;;;;;63.60;30.90;;;;;;;5.04;53.14;98259.55;108152;1252;60391;-65
2023/11/26 04:20:22;;;;;;;67.90;31.10;;;;;;;5.18;53.33;98247.29;108233;1254;60399;-65
2023/11/26 04:22:49;;;;;;;64.80;31.90;;;;;;;5.24;52.95;98240.59;108111;1253;71736;-66
2023/11/26 04:25:17;;;;;;;73.50;32.10;;;;;;;5.29;53.11;98236.89;108120;1256;69883;-66
2023/11/26 04:27:45;;;;;;;68.90;32.90;;;;;;;5.42;52.83;98229.16;108113;1254;71069;-66
2023/11/26 04:30:12;;;;;;;64.60;31.40;;;;;;;5.45;52.79;98226.21;108117;1253;61781;-66
2023/11/26 04:32:40;;;;;;;66.60;31.40;;;;;;;5.60;52.54;98228.83;108041;1252;60160;-66
2023/11/26 04:35:08;;;;;;;61.50;28.60;;;;;;;5.56;52.71;98223.28;108095;1252;72227;-66
2023/11/26 04:37:36;;;;;;;61.50;28.30;;;;;;;5.60;52.82;98221.48;108081;1253;69236;-66
2023/11/26 04:40:05;;;;;;;65.00;28.40;;;;;;;5.49;53.11;98225.86;108217;1257;72455;-66
2023/11/26 04:42:33;;;;;;;68.20;31.50;;;;;;;5.56;53.07;98224.84;108094;1253;61669;-67
2023/11/26 04:45:01;;;;;;;62.10;27.70;;;;;;;5.60;52.98;98224.30;108116;1254;60457;-66
2023/11/26 04:47:29;;;;;;;68.10;30.90;;;;;;;5.60;52.90;98218.21;108098;1252;73930;-66
2023/11/26 04:49:58;;;;;;;70.40;29.20;;;;;;;5.80;52.58;98214.48;108150;1256;70303;-66
2023/11/26 04:52:26;;;;;;;70.80;28.80;;;;;;;5.81;52.41;98212.14;108180;1252;71560;-66
2023/11/26 04:54:53;;;;;;;71.70;30.80;;;;;;;5.81;52.48;98210.57;108217;1254;61675;-65
2023/11/26 04:57:21;;;;;;;67.10;28.80;;;;;;;5.82;52.49;98208.65;108109;1254;60293;-64
2023/11/26 04:59:48;;;;;;;71.80;28.90;;;;;;;5.81;52.61;98210.25;108161;1254;73844;-67
2023/11/26 05:02:18;;;;;;;57.20;28.00;;;;;;;5.99;52.21;98208.88;108171;1251;68831;-66
2023/11/26 05:04:47;;;;;;;63.20;26.40;;;;;;;5.91;52.36;98207.34;108204;1254;72743;-67
2023/11/26 05:07:15;;;;;;;67.20;29.90;;;;;;;5.79;52.68;98216.11;108179;1252;60740;-65
2023/11/26 05:09:43;;;;;;;63.00;28.00;;;;;;;5.68;53.11;98217.11;108253;1251;60322;-67
2023/11/26 05:12:11;;;;;;;55.90;25.50;;;;;;;5.84;52.82;98216.55;108166;1251;72640;-65
2023/11/26 05:14:38;;;;;;;53.00;24.80;;;;;;;5.85;52.69;98213.88;108167;1251;70110;-67
2023/11/26 05:17:06;;;;;;;49.40;24.30;;;;;;;5.96;52.45;98209.52;108258;1251;71452;-66
2023/11/26 05:19:34;;;;;;;51.10;24.70;;;;;;;5.98;52.50;98209.29;108182;1253;60954;-66
2023/11/26 05:22:03;;;;;;;61.50;27.80;;;;;;;5.96;52.38;98208.66;108195;1251;60338;-66
2023/11/26 05:24:30;;;;;;;59.80;26.50;;;;;;;6.04;52.16;98208.11;108179;1251;72650;-66
2023/11/26 05:26:57;;;;;;;56.30;25.30;;;;;;;6.45;51.26;98209.55;108297;1251;69963;-66
2023/11/26 05:29:25;;;;;;;54.50;25.50;;;;;;;6.06;51.90;98208.52;108271;1251;71645;-67
2023/11/26 05:31:52;;;;;;;53.20;23.80;;;;;;;6.14;51.92;98204.16;108178;1251;60345;-67
2023/11/26 05:34:20;;;;;;;51.20;24.20;;;;;;;6.20;51.76;98198.95;108182;1251;59362;-67
2023/11/26 05:36:49;;;;;;;51.50;24.70;;;;;;;6.06;52.00;98204.48;108252;1251;72636;-67
2023/11/26 05:39:17;;;;;;;56.40;26.80;;;;;;;5.48;53.38;98222.41;108174;1256;69022;-67
2023/11/26 05:41:45;;;;;;;54.10;25.40;;;;;;;5.80;53.13;98222.83;108201;1251;72986;-66
2023/11/26 05:44:12;;;;;;;49.40;24.00;;;;;;;6.19;52.11;98221.31;108177;1251;60931;-66
2023/11/26 05:46:43;;;;;;;50.30;24.90;;;;;;;6.28;51.81;98219.66;108143;1251;60335;-66
2023/11/26 05:49:12;;;;;;;56.30;26.40;;;;;;;6.14;51.92;98221.34;108222;1251;72645;-66
2023/11/26 05:51:39;;;;;;;60.60;27.20;;;;;;;6.09;52.06;98225.64;108195;1251;70574;-66
2023/11/26 05:54:07;;;;;;;49.60;24.30;;;;;;;6.18;51.96;98222.39;108244;1253;71484;-65
2023/11/26 05:56:35;;;;;;;49.50;24.10;;;;;;;6.16;51.92;98224.75;108265;1251;60479;-66
2023/11/26 06:01:56;;;;;;;51.80;25.20;;;;;;;4.56;56.83;98229.86;104685;1294;600292;-67
2023/11/26 06:04:22;;;;;;;49.80;25.00;;;;;;;5.81;53.36;98218.44;107283;1266;59322;-67
2023/11/26 06:06:50;;;;;;;52.30;25.30;;;;;;;5.85;52.88;98215.10;107245;1266;59359;-66
2023/11/26 06:09:16;;;;;;;55.90;26.60;;;;;;;5.69;53.23;98214.30;107289;1266;72064;-67
2023/11/26 06:11:43;;;;;;;56.20;26.90;;;;;;;5.55;53.74;98216.54;107402;1266;70033;-66
2023/11/26 06:14:10;;;;;;;56.50;26.90;;;;;;;5.66;53.48;98214.77;107192;1263;110950;-66
2023/11/26 06:16:37;;;;;;;59.80;26.90;;;;;;;5.68;53.37;98215.02;107829;1256;60749;-66
2023/11/26 06:19:03;;;;;;;53.90;26.90;;;;;;;5.99;52.87;98208.48;107882;1256;59193;-66
2023/11/26 06:21:30;;;;;;;51.40;25.20;;;;;;;6.23;52.00;98202.46;107836;1256;72015;-66
2023/11/26 06:23:58;;;;;;;57.50;25.90;;;;;;;6.34;51.85;98199.45;107846;1256;70145;-66
2023/11/26 06:26:25;;;;;;;54.80;26.40;;;;;;;6.47;51.33;98197.41;107738;1259;73028;-66
2023/11/26 06:28:52;;;;;;;49.50;24.50;;;;;;;6.44;51.34;98199.81;107611;1258;61191;-66
2023/11/26 06:31:22;;;;;;;52.60;28.00;;;;;;;6.55;51.37;98203.27;107704;1259;60702;-67
2023/11/26 06:33:48;;;;;;;53.60;25.60;;;;;;;6.26;51.83;98209.62;107645;1258;73148;-67
2023/11/26 06:36:19;;;;;;;48.20;24.70;;;;;;;6.26;52.13;98210.00;107644;1259;68167;-66
2023/11/26 06:38:46;;;;;;;49.70;24.60;;;;;;;6.45;51.63;98210.59;107670;1259;72582;-66
2023/11/26 06:41:27;;;;;;;49.00;24.70;;;;;;;6.23;52.02;98213.08;107651;1259;59524;-66
2023/11/26 06:43:55;;;;;;;46.60;23.90;;;;;;;6.46;51.78;98209.81;107644;1259;59598;-66
2023/11/26 06:46:22;;;;;;;56.60;25.90;;;;;;;6.70;51.11;98208.80;107596;1258;73042;-66
2023/11/26 06:48:50;;;;;;;45.90;23.40;;;;;;;6.73;50.80;98208.78;107679;1260;70149;-66
2023/11/26 06:51:19;;;;;;;46.20;24.00;;;;;;;6.74;50.91;98211.01;107753;1258;71887;-67
2023/11/26 06:53:47;;;;;;;51.80;25.00;;;;;;;6.68;50.96;98210.27;107673;1259;60291;-66
2023/11/26 06:56:15;;;;;;;49.80;24.00;;;;;;;6.74;50.98;98209.25;107729;1257;59699;-67
2023/11/26 06:58:46;;;;;;;49.70;25.10;;;;;;;6.89;50.86;98205.90;107658;1259;73475;-66
2023/11/26 07:01:13;;;;;;;50.70;23.20;;;;;;;6.98;50.73;98200.84;107687;1259;70298;-66
2023/11/26 07:03:40;;;;;;;50.20;24.70;;;;;;;7.14;50.19;98196.19;107654;1259;70402;-66
2023/11/26 07:06:08;;;;;;;49.10;23.00;;;;;;;7.18;49.96;98188.67;107665;1259;61054;-67
2023/11/26 07:08:39;;;;;;;48.50;24.40;;;;;;;7.22;50.08;98190.13;107644;1260;60207;-66
2023/11/26 07:11:24;;;;;;;56.70;25.40;;;;;;;7.22;50.04;98189.11;107644;1259;71525;-66
2023/11/26 07:13:51;;;;;;;57.40;26.30;;;;;;;7.32;49.59;98179.52;107645;1259;70371;-67
2023/11/26 07:16:18;;;;;;;51.00;24.70;;;;;;;7.44;49.42;98179.52;107679;1259;71247;-67
2023/11/26 07:18:45;;;;;;;49.10;25.30;;;;;;;7.12;50.12;98178.17;107608;1259;59853;-66
2023/11/26 07:21:12;;;;;;;46.30;23.90;;;;;;;7.25;49.72;98172.70;107498;1259;59550;-67
2023/11/26 07:23:39;;;;;;;50.80;24.40;;;;;;;7.15;49.93;98168.56;107585;1259;71000;-66
2023/11/26 07:26:13;;;;;;;57.40;26.50;;;;;;;7.23;49.77;98164.08;107625;1259;69248;-66
2023/11/26 07:28:39;;;;;;;48.90;24.50;;;;;;;7.08;50.21;98160.02;107554;1262;72549;-66
2023/11/26 07:31:19;;;;;;;50.90;25.60;;;;;;;7.22;50.18;98158.36;107630;1259;61673;-66
2023/11/26 07:33:46;;;;;;;50.00;22.60;;;;;;;7.24;50.10;98159.52;107717;1259;60376;-66
2023/11/26 07:36:17;;;;;;;51.00;25.10;;;;;;;7.30;49.95;98157.79;107736;1259;72909;-66
2023/11/26 07:38:43;;;;;;;50.20;25.70;;;;;;;7.09;50.59;98156.13;107686;1259;69525;-66
2023/11/26 07:41:10;;;;;;;58.30;26.20;;;;;;;7.06;50.71;98156.83;107590;1264;71269;-66
2023/11/26 07:43:40;;;;;;;57.60;26.20;;;;;;;6.95;50.45;98160.38;107580;1259;59992;-67
2023/11/26 07:46:07;;;;;;;55.70;26.10;;;;;;;7.10;50.34;98153.63;107656;1259;60421;-66
2023/11/26 07:48:35;;;;;;;54.60;25.90;;;;;;;7.08;50.23;98148.86;107686;1259;71551;-66
2023/11/26 07:51:06;;;;;;;49.30;24.60;;;;;;;7.02;50.14;98149.55;107652;1259;70150;-66
2023/11/26 07:53:32;;;;;;;52.20;26.10;;;;;;;7.28;49.92;98142.67;107633;1259;72676;-67
2023/11/26 07:56:00;;;;;;;50.30;23.90;;;;;;;7.37;49.73;98136.30;107673;1260;60065;-66
2023/11/26 07:58:27;;;;;;;54.20;26.10;;;;;;;7.51;49.47;98134.61;107600;1259;60179;-66
2023/11/26 08:00:55;;;;;;;45.10;22.90;;;;;;;7.34;49.63;98132.45;107702;1257;70635;-65
2023/11/26 08:03:26;;;;;;;49.00;23.20;;;;;;;7.40;49.77;98131.58;107744;1258;70878;-66
2023/11/26 08:05:53;;;;;;;45.40;23.60;;;;;;;7.52;49.12;98133.02;107649;1257;72785;-67
2023/11/26 08:08:22;;;;;;;43.40;23.30;;;;;;;7.75;48.79;98136.38;107666;1259;59881;-67
2023/11/26 08:10:51;;;;;;;48.20;23.50;;;;;;;7.89;48.59;98140.69;107732;1258;59511;-66
2023/11/26 08:13:22;;;;;;;42.10;22.60;;;;;;;7.99;48.39;98138.54;107777;1258;74511;-66
2023/11/26 08:15:50;;;;;;;44.50;23.30;;;;;;;8.15;48.22;98137.20;107822;1259;70133;-67
2023/11/26 08:18:16;;;;;;;43.10;22.50;;;;;;;8.15;47.93;98134.94;107747;1257;72387;-66
2023/11/26 08:20:43;;;;;;;46.10;22.30;;;;;;;8.19;47.72;98131.21;107736;1259;60975;-66
2023/11/26 08:23:12;;;;;;;43.90;21.60;;;;;;;8.28;47.21;98125.80;107693;1259;59703;-66
2023/11/26 08:25:40;;;;;;;45.50;20.40;;;;;;;8.41;46.99;98122.94;107709;1258;73122;-67
2023/11/26 08:28:07;;;;;;;38.00;18.90;;;;;;;8.52;46.91;98121.78;107785;1257;68921;-66
2023/11/26 08:30:47;;;;;;;39.70;20.40;;;;;;;8.59;46.82;98119.92;107586;1259;72722;-66
2023/11/26 08:33:17;;;;;;;44.10;21.10;;;;;;;8.54;46.58;98120.10;107596;1259;61619;-66
2023/11/26 08:35:44;;;;;;;44.90;21.50;;;;;;;8.58;46.42;98118.98;107663;1257;60426;-67
2023/11/26 08:38:12;;;;;;;37.10;19.20;;;;;;;8.49;46.51;98121.08;107680;1257;72925;-67
2023/11/26 08:40:42;;;;;;;;;;;;;;;8.47;46.48;98113.13;107689;1257;70260;-67
2023/11/26 08:43:14;;;;;;;40.30;20.60;;;;;;;8.53;46.46;98110.86;107652;1257;72545;-66
2023/11/26 08:45:41;;;;;;;36.60;18.50;;;;;;;8.54;46.26;98101.88;107706;1257;61455;-66
2023/11/26 08:48:08;;;;;;;39.00;19.10;;;;;;;8.51;46.43;98095.39;107607;1259;59523;-67
2023/11/26 08:50:35;;;;;;;42.50;20.30;;;;;;;8.27;46.71;98095.27;107696;1257;72021;-66
2023/11/26 08:53:05;;;;;;;44.20;18.90;;;;;;;8.47;46.24;98100.19;107716;1259;69074;-66
2023/11/26 08:55:32;;;;;;;40.80;20.50;;;;;;;8.58;46.10;98097.42;107761;1256;72657;-67
2023/11/26 08:58:00;;;;;;;40.60;21.50;;;;;;;8.60;46.12;98098.73;107868;1257;60960;-67
2023/11/26 09:00:27;;;;;;;39.00;18.60;;;;;;;8.52;45.98;98098.31;107684;1256;60066;-66
2023/11/26 09:02:53;;;;;;;44.20;20.10;;;;;;;8.43;46.24;98095.54;107841;1260;72913;-67
2023/11/26 09:05:21;;;;;;;34.30;17.90;;;;;;;8.39;46.25;98088.96;107851;1256;69459;-67
2023/11/26 09:07:50;;;;;;;42.00;19.50;;;;;;;8.22;46.83;98080.56;107851;1261;72559;-66
2023/11/26 09:10:20;;;;;;;38.00;19.70;;;;;;;8.24;46.86;98076.25;107798;1256;59594;-67
2023/11/26 09:12:47;;;;;;;37.90;15.50;;;;;;;8.28;46.66;98070.88;107842;1260;59523;-66
2023/11/26 09:15:13;;;;;;;40.20;19.80;;;;;;;8.40;46.64;98065.46;107833;1256;72096;-66
2023/11/26 09:17:41;;;;;;;36.80;18.30;;;;;;;8.25;46.71;98057.77;107836;1256;69998;-65
2023/11/26 09:20:11;;;;;;;40.60;19.90;;;;;;;8.28;46.89;98046.06;107842;1256;72481;-65
2023/11/26 09:22:39;;;;;;;40.20;20.10;;;;;;;8.26;47.12;98038.36;107862;1256;60959;-66
2023/11/26 09:25:08;;;;;;;34.80;18.20;;;;;;;8.32;46.85;98030.63;107947;1256;59066;-66
2023/11/26 09:27:35;;;;;;;41.70;19.00;;;;;;;8.32;47.02;98025.76;107978;1257;73040;-66
2023/11/26 09:30:06;;;;;;;40.70;19.30;;;;;;;8.36;46.98;98011.65;107944;1257;70270;-66
2023/11/26 09:32:34;;;;;;;37.20;17.60;;;;;;;8.40;47.02;98007.91;107866;1256;73260;-66
2023/11/26 09:35:01;;;;;;;38.90;18.80;;;;;;;8.54;46.80;98004.62;107876;1260;59655;-66
2023/11/26 09:37:28;;;;;;;40.70;19.10;;;;;;;8.68;46.45;98001.66;107937;1257;59699;-66
2023/11/26 09:39:55;;;;;;;35.30;18.60;;;;;;;8.68;46.38;98000.64;107921;1260;72850;-66
2023/11/26 09:42:22;;;;;;;36.80;18.90;;;;;;;8.63;46.56;97998.13;107937;1257;69347;-66
2023/11/26 09:44:49;;;;;;;38.20;18.80;;;;;;;8.43;46.83;98000.25;107945;1260;71686;-66
2023/11/26 09:47:17;;;;;;;36.90;18.30;;;;;;;8.55;46.63;97994.04;107894;1257;61217;-66
2023/11/26 09:49:45;;;;;;;33.60;16.90;;;;;;;8.58;46.47;97988.13;107831;1262;59542;-66
2023/11/26 09:52:24;;;;;;;34.80;17.80;;;;;;;8.59;46.54;97982.95;107885;1258;72021;-66
2023/11/26 09:54:56;;;;;;;37.10;17.30;;;;;;;8.57;46.64;97968.91;107870;1260;69278;-66
2023/11/26 09:57:23;;;;;;;35.00;15.50;;;;;;;8.35;46.94;97961.70;107776;1260;73179;-66
2023/11/26 09:59:51;;;;;;;35.90;16.10;;;;;;;8.13;47.54;97957.99;107785;1262;61282;-65
2023/11/26 10:02:18;;;;;;;29.20;16.00;;;;;;;8.37;46.91;97948.34;107820;1257;59207;-66
2023/11/26 10:04:46;;;;;;;34.50;16.00;;;;;;;8.42;46.51;97937.73;107898;1256;73669;-66
2023/11/26 10:07:14;;;;;;;27.90;14.50;;;;;;;8.47;46.65;97931.27;107875;1256;70712;-66
2023/11/26 10:09:42;;;;;;;27.50;15.20;;;;;;;8.43;46.44;97923.64;107733;1258;71706;-66
2023/11/26 10:12:09;;;;;;;31.70;16.50;;;;;;;8.35;46.75;97916.80;107880;1260;60413;-66
2023/11/26 10:14:35;;;;;;;27.50;13.50;;;;;;;8.70;46.12;97909.89;107874;1257;60231;-66
2023/11/26 10:17:10;;;;;;;28.50;13.60;;;;;;;8.88;45.71;97909.04;108094;1254;73741;-66
2023/11/26 10:19:37;;;;;;;25.40;13.40;;;;;;;8.65;45.92;97898.45;107889;1258;70155;-66
2023/11/26 10:22:03;;;;;;;27.00;12.70;;;;;;;8.49;46.00;97891.59;107893;1257;72363;-66
2023/11/26 10:24:30;;;;;;;27.00;12.90;;;;;;;8.27;46.40;97887.06;107882;1258;61160;-66
2023/11/26 10:26:59;;;;;;;25.50;13.00;;;;;;;8.35;46.43;97881.66;107886;1259;60423;-66
2023/11/26 10:29:29;;;;;;;23.60;12.00;;;;;;;8.37;46.13;97879.57;107935;1255;72744;-66
2023/11/26 10:32:06;;;;;;;25.40;12.90;;;;;;;8.30;46.16;97874.95;107942;1258;70065;-66
2023/11/26 10:34:34;;;;;;;25.80;12.60;;;;;;;8.60;45.65;97875.72;107893;1256;72478;-66
2023/11/26 10:37:02;;;;;;;23.10;11.70;;;;;;;8.72;45.33;97877.04;107929;1257;61029;-66
2023/11/26 10:39:30;;;;;;;28.10;12.80;;;;;;;8.74;45.25;97874.26;108063;1258;60497;-66
2023/11/26 10:41:56;;;;;;;21.00;12.00;;;;;;;8.64;45.12;97873.67;107986;1256;73885;-66
2023/11/26 10:44:24;;;;;;;25.60;11.60;;;;;;;8.76;44.86;97870.66;107757;1257;70759;-66
2023/11/26 10:46:51;;;;;;;28.60;11.80;;;;;;;8.83;44.67;97867.23;108000;1258;72849;-67
2023/11/26 10:49:39;;;;;;;26.10;11.10;;;;;;;8.56;44.96;97863.91;107975;1259;62364;-66
2023/11/26 10:52:12;;;;;;;25.10;11.80;;;;;;;8.38;45.28;97868.86;108016;1257;60332;-66
2023/11/26 10:54:56;;;;;;;24.70;10.80;;;;;;;8.39;45.45;97871.95;107945;1257;74183;-66
2023/11/26 10:57:41;;;;;;;22.00;11.30;;;;;;;8.34;45.46;97875.58;107925;1258;69003;-66
2023/11/26 11:00:10;;;;;;;25.50;11.90;;;;;;;8.40;45.29;97879.92;107975;1256;71157;-65
2023/11/26 11:02:37;;;;;;;24.10;11.90;;;;;;;8.59;44.95;97884.84;107936;1257;60327;-66
2023/11/26 11:05:05;;;;;;;25.80;11.50;;;;;;;8.62;44.81;97891.15;107936;1255;59226;-66
2023/11/26 11:07:32;;;;;;;21.00;11.20;;;;;;;8.51;44.92;97895.34;108013;1259;74494;-66
2023/11/26 11:10:06;;;;;;;22.90;11.30;;;;;;;8.44;44.88;97898.26;107909;1258;70212;-66
2023/11/26 11:12:45;;;;;;;20.60;10.40;;;;;;;8.55;44.99;97897.00;107867;1255;71307;-66
2023/11/26 11:15:15;;;;;;;25.30;11.00;;;;;;;8.60;44.91;97891.27;107977;1254;61356;-65
2023/11/26 11:17:43;;;;;;;21.90;10.20;;;;;;;8.56;44.60;97895.04;107877;1255;60420;-66
2023/11/26 11:20:10;;;;;;;17.10;9.70;;;;;;;8.78;44.28;97896.24;107988;1258;72583;-67
2023/11/26 11:22:39;;;;;;;23.00;10.00;;;;;;;8.67;44.40;97886.95;107953;1256;70136;-67
2023/11/26 11:25:16;;;;;;;20.10;9.80;;;;;;;8.44;44.58;97881.44;107844;1258;72974;-66
2023/11/26 11:27:59;;;;;;;18.20;9.90;;;;;;;8.54;44.34;97879.57;107970;1258;61149;-67